createdAt,value
2023-04-15T00:00:54.733Z,3.22
2023-04-15T00:05:56.531Z,3.30
2023-04-15T00:11:03.018Z,3.20
2023-04-15T00:16:06.458Z,3.38
2023-04-15T00:21:09.074Z,3.25
2023-04-15T00:26:10.854Z,3.67
2023-04-15T00:31:12.732Z,3.30
2023-04-15T00:36:15.631Z,3.13
2023-04-15T00:41:19.357Z,3.20
2023-04-15T00:46:21.999Z,3.05
2023-04-15T00:51:24.587Z,3.13
2023-04-15T00:56:28.909Z,3.50
2023-04-15T01:01:31.362Z,3.17
2023-04-15T01:06:33.585Z,3.22
2023-04-15T01:11:35.789Z,3.40
2023-04-15T01:16:39.905Z,2.80
2023-04-15T01:21:42.005Z,2.75
2023-04-15T01:26:45.262Z,3.28
2023-04-15T01:31:55.112Z,2.88
2023-04-15T01:36:56.955Z,3.30
2023-04-15T01:41:58.799Z,3.00
2023-04-15T01:47:00.850Z,3.30
2023-04-15T01:52:02.732Z,3.33
2023-04-15T01:57:05.612Z,2.80
2023-04-15T02:02:07.442Z,2.90
2023-04-15T02:07:09.160Z,3.00
2023-04-15T02:12:10.898Z,3.40
2023-04-15T02:17:12.644Z,3.60
2023-04-15T02:22:18.645Z,2.97
2023-04-15T02:27:22.584Z,2.92
2023-04-15T02:32:25.667Z,3.17
2023-04-15T02:37:31.200Z,2.97
2023-04-15T02:42:33.228Z,2.95
2023-04-15T02:47:36.438Z,2.88
2023-04-15T02:52:41.835Z,2.85
2023-04-15T02:57:44.135Z,2.75
2023-04-15T03:02:47.079Z,2.95
2023-04-15T03:07:48.945Z,2.97
2023-04-15T03:12:51.061Z,2.92
2023-04-15T03:17:55.187Z,2.92
2023-04-15T03:22:57.064Z,3.08
2023-04-15T03:28:00.367Z,3.17
2023-04-15T03:33:02.270Z,3.05
2023-04-15T03:38:04.325Z,2.80
2023-04-15T03:43:06.429Z,3.15
2023-04-15T03:48:17.148Z,3.42
2023-04-15T03:53:22.308Z,2.75
2023-04-15T03:58:24.134Z,3.30
2023-04-15T04:03:26.218Z,2.85
2023-04-15T04:08:28.177Z,2.88
2023-04-15T04:13:30.036Z,3.58
2023-04-15T04:18:32.850Z,2.78
2023-04-15T04:23:34.629Z,3.20
2023-04-15T04:28:36.637Z,3.22
2023-04-15T04:33:38.409Z,3.22
2023-04-15T04:38:40.248Z,2.80
2023-04-15T04:43:41.976Z,3.47
2023-04-15T04:48:44.903Z,3.55
2023-04-15T04:53:48.328Z,3.75
2023-04-15T04:58:50.049Z,2.90
2023-04-15T05:03:52.053Z,3.25
2023-04-15T05:08:54.471Z,3.42
2023-04-15T05:13:56.256Z,3.00
2023-04-15T05:18:58.047Z,3.42
2023-04-15T05:23:59.792Z,3.55
2023-04-15T05:29:01.760Z,4.13
2023-04-15T05:34:05.306Z,2.90
2023-04-15T05:39:07.234Z,3.63
2023-04-15T05:44:09.027Z,3.40
2023-04-15T05:49:10.809Z,3.63
2023-04-15T05:54:12.539Z,3.30
2023-04-15T05:59:14.277Z,3.55
2023-04-15T06:04:17.293Z,3.20
2023-04-15T06:09:19.109Z,3.05
2023-04-15T06:14:20.987Z,2.88
2023-04-15T06:19:22.718Z,3.00
2023-04-15T06:24:24.501Z,2.97
2023-04-15T06:29:26.277Z,3.08
2023-04-15T06:34:28.012Z,3.03
2023-04-15T06:39:29.885Z,3.10
2023-04-15T06:44:33.792Z,3.53
2023-04-15T06:49:36.092Z,2.90
2023-04-15T06:54:37.918Z,3.03
2023-04-15T06:59:39.630Z,3.30
2023-04-15T07:04:41.442Z,3.40
2023-04-15T07:09:43.654Z,3.80
2023-04-15T07:14:45.533Z,3.60
2023-04-15T07:19:47.396Z,3.88
2023-04-15T07:24:49.114Z,3.72
2023-04-15T07:29:52.137Z,4.15
2023-04-15T07:34:53.917Z,4.35
2023-04-15T07:39:56.164Z,5.18
2023-04-15T07:44:58.140Z,3.95
2023-04-15T07:50:00.917Z,3.72
2023-04-15T07:55:02.752Z,4.28
2023-04-15T08:00:05.853Z,3.60
2023-04-15T08:05:15.198Z,4.10
2023-04-15T08:10:17.180Z,4.10
2023-04-15T08:15:19.032Z,4.25
2023-04-15T08:20:20.907Z,3.92
2023-04-15T08:25:22.733Z,3.70
2023-04-15T08:30:24.613Z,4.65
2023-04-15T08:35:26.619Z,4.10
2023-04-15T08:40:35.642Z,4.00
2023-04-15T08:45:39.866Z,3.63
2023-04-15T08:51:19.814Z,4.68
2023-04-15T08:56:25.158Z,4.18
2023-04-15T09:01:27.367Z,4.03
2023-04-15T09:06:29.165Z,4.35
2023-04-15T09:11:31.572Z,3.67
2023-04-15T09:16:56.724Z,4.03
2023-04-15T09:21:59.714Z,3.40
2023-04-15T09:27:02.490Z,3.22
2023-04-15T09:32:11.865Z,2.78
2023-04-15T09:37:29.105Z,2.85
2023-04-15T09:42:33.637Z,2.80
2023-04-15T09:47:35.869Z,2.95
2023-04-15T09:52:45.326Z,2.58
2023-04-15T09:57:47.536Z,1.60
2023-04-15T10:02:49.913Z,1.60
2023-04-15T10:07:52.064Z,1.38
2023-04-15T10:12:55.720Z,1.33
2023-04-15T10:18:00.533Z,1.30
2023-04-15T10:23:02.487Z,1.20
2023-04-15T10:28:06.325Z,1.15
2023-04-15T10:33:09.613Z,1.40
2023-04-15T10:38:34.020Z,1.38
2023-04-15T10:43:37.979Z,1.20
2023-04-15T10:48:47.135Z,1.10
2023-04-15T10:53:49.376Z,1.30
2023-04-15T10:58:51.304Z,1.20
2023-04-15T11:03:55.937Z,1.17
2023-04-15T11:09:02.576Z,1.25
2023-04-15T11:14:04.698Z,1.05
2023-04-15T11:19:07.096Z,1.20
2023-04-15T11:24:09.617Z,1.35
2023-04-15T11:29:17.885Z,1.40
2023-04-15T11:34:25.590Z,1.30
2023-04-15T11:39:29.338Z,1.50
2023-04-15T11:44:31.243Z,1.50
2023-04-15T11:49:34.959Z,1.50
2023-04-15T11:54:37.988Z,1.42
2023-04-15T11:59:45.323Z,1.70
2023-04-15T12:04:47.815Z,1.50
2023-04-15T12:09:56.789Z,1.50
2023-04-15T12:14:59.512Z,1.70
2023-04-15T12:20:01.286Z,1.63
2023-04-15T12:25:04.685Z,1.55
2023-04-15T12:30:08.061Z,1.50
2023-04-15T12:35:09.962Z,1.50
2023-04-15T12:40:11.943Z,1.70
2023-04-15T12:45:13.702Z,1.70
2023-04-15T12:50:15.559Z,1.63
2023-04-15T12:55:17.482Z,1.23
2023-04-15T13:00:19.361Z,1.50
2023-04-15T13:05:21.469Z,1.40
2023-04-15T13:10:23.314Z,1.70
2023-04-15T13:15:25.999Z,1.80
2023-04-15T13:20:28.200Z,1.80
2023-04-15T13:25:29.981Z,2.20
2023-04-15T13:30:31.977Z,2.28
2023-04-15T13:35:34.040Z,2.40
2023-04-15T13:40:35.958Z,3.40
2023-04-15T13:45:38.027Z,4.05
2023-04-15T13:50:41.639Z,3.88
2023-04-15T13:55:43.641Z,3.67
2023-04-15T14:00:45.776Z,4.30
2023-04-15T14:05:47.708Z,4.60
2023-04-15T14:10:49.946Z,5.13
2023-04-15T14:15:51.834Z,4.40
2023-04-15T14:20:53.819Z,5.70
2023-04-15T14:25:55.624Z,5.30
2023-04-15T14:30:57.408Z,5.15
2023-04-15T14:35:59.350Z,4.40
2023-04-15T14:41:01.129Z,5.70
2023-04-15T14:46:03.026Z,6.05
2023-04-15T14:51:05.878Z,5.95
2023-04-15T14:56:07.835Z,7.63
2023-04-15T15:01:10.523Z,6.80
2023-04-15T15:06:12.317Z,6.25
2023-04-15T15:11:14.030Z,6.40
2023-04-15T15:16:15.912Z,6.00
2023-04-15T15:21:18.080Z,6.20
2023-04-15T15:26:19.873Z,6.07
2023-04-15T15:31:21.812Z,5.80
2023-04-15T15:36:23.631Z,6.20
2023-04-15T15:41:26.010Z,5.50
2023-04-15T15:46:31.422Z,5.88
2023-04-15T15:51:33.575Z,5.35
2023-04-15T15:56:38.463Z,5.40
2023-04-15T16:01:40.510Z,6.28
2023-04-15T16:06:44.613Z,5.47
2023-04-15T16:11:46.651Z,5.60
2023-04-15T16:16:48.410Z,5.72
2023-04-15T16:21:50.223Z,6.20
2023-04-15T16:26:52.008Z,5.88
2023-04-15T16:31:55.834Z,5.80
2023-04-15T16:36:57.684Z,5.97
2023-04-15T16:41:59.648Z,5.70
2023-04-15T16:47:03.106Z,5.40
2023-04-15T16:52:04.892Z,6.35
2023-04-15T16:57:07.054Z,7.20
2023-04-15T17:02:12.579Z,6.38
2023-04-15T17:07:14.381Z,6.95
2023-04-15T17:12:16.118Z,6.40
2023-04-15T17:17:17.892Z,6.22
2023-04-15T17:22:19.767Z,6.10
2023-04-15T17:27:21.818Z,6.18
2023-04-15T17:32:24.318Z,6.03
2023-04-15T17:37:27.150Z,5.55
2023-04-15T17:42:29.183Z,6.57
2023-04-15T17:47:32.261Z,7.10
2023-04-15T17:52:34.482Z,8.45
2023-04-15T17:57:36.512Z,7.32
2023-04-15T18:02:40.527Z,7.95
2023-04-15T18:07:42.562Z,8.18
2023-04-15T18:12:44.297Z,6.70
2023-04-15T18:17:46.303Z,6.22
2023-04-15T18:22:48.404Z,6.30
2023-04-15T18:27:50.440Z,5.32
2023-04-15T18:32:52.325Z,5.47
2023-04-15T18:37:54.166Z,5.15
2023-04-15T18:42:56.042Z,6.20
2023-04-15T18:47:57.918Z,4.70
2023-04-15T18:52:59.682Z,5.05
2023-04-15T18:58:06.417Z,5.03
2023-04-15T19:03:11.729Z,5.18
2023-04-15T19:08:13.542Z,5.70
2023-04-15T19:13:17.089Z,5.60
2023-04-15T19:18:21.808Z,4.80
2023-04-15T19:23:23.887Z,5.32
2023-04-15T19:28:28.263Z,5.40
2023-04-15T19:33:31.616Z,4.80
2023-04-15T19:38:36.039Z,4.60
2023-04-15T19:43:39.071Z,4.90
2023-04-15T19:48:40.894Z,3.97
2023-04-15T19:53:42.747Z,4.57
2023-04-15T19:58:46.969Z,4.53
2023-04-15T20:03:49.100Z,4.70
2023-04-15T20:08:52.257Z,4.75
2023-04-15T20:13:54.386Z,4.80
2023-04-15T20:18:56.130Z,4.70
2023-04-15T20:23:57.876Z,4.30
2023-04-15T20:29:00.518Z,4.32
2023-04-15T20:34:02.347Z,4.80
2023-04-15T20:39:04.361Z,4.60
2023-04-15T20:44:06.387Z,4.50
2023-04-15T20:49:08.183Z,4.60
2023-04-15T20:54:09.990Z,4.65
2023-04-15T20:59:11.739Z,4.97
2023-04-15T21:04:13.539Z,4.78
2023-04-15T21:09:15.273Z,4.50
2023-04-15T21:14:17.137Z,5.28
2023-04-15T21:19:18.855Z,5.50
2023-04-15T21:24:20.619Z,5.18
2023-04-15T21:29:22.384Z,5.57
2023-04-15T21:34:24.147Z,5.78
2023-04-15T21:39:25.902Z,5.75
2023-04-15T21:44:27.689Z,6.40
2023-04-15T21:49:29.410Z,5.78
2023-04-15T21:54:31.407Z,6.35
2023-04-15T21:59:33.219Z,5.57
2023-04-15T22:04:35.000Z,5.90
2023-04-15T22:09:36.781Z,5.70
2023-04-15T22:14:38.562Z,5.55
2023-04-15T22:19:40.486Z,6.13
2023-04-15T22:24:42.285Z,6.75
2023-04-15T22:29:44.431Z,6.03
2023-04-15T22:34:46.160Z,6.15
2023-04-15T22:39:47.956Z,7.07
2023-04-15T22:44:50.161Z,6.47
2023-04-15T22:49:51.893Z,6.93
2023-04-15T22:54:53.689Z,7.38
2023-04-15T22:59:55.594Z,7.00
2023-04-15T23:04:57.752Z,7.47
2023-04-15T23:10:01.178Z,7.70
2023-04-15T23:15:03.655Z,6.68
2023-04-15T23:20:06.475Z,7.60
2023-04-15T23:25:08.616Z,7.43
2023-04-15T23:30:10.658Z,7.30
2023-04-15T23:35:12.404Z,7.90
2023-04-15T23:40:14.300Z,7.43
2023-04-15T23:45:16.052Z,8.32
2023-04-15T23:50:17.979Z,9.02
2023-04-15T23:55:19.805Z,8.68
